Time;durP1;ratioP1;P1;durP2;ratioP2;P2;SDS_P1;SDS_P2;PMS_P1;PMS_P2;Temp;Humidity;BMP_temperature;BMP_pressure;BME280_temperature;BME280_humidity;BME280_pressure;Samples;Min_cycle;Max_cycle;Signal;HPM_P1;HPM_P2
2022/10/02 00:00:18;;;;;;;29.77;6.23;;;15.70;99.90;;;;;;5113137;28;20224;-74
2022/10/02 00:02:46;;;;;;;34.27;6.40;;;15.80;99.90;;;;;;5114611;28;20210;-73
2022/10/02 00:05:13;;;;;;;25.73;5.80;;;15.80;99.90;;;;;;5114420;28;20623;-74
2022/10/02 00:07:48;;;;;;;27.37;5.40;;;15.80;99.90;;;;;;5114672;28;20167;-74
2022/10/02 00:10:23;;;;;;;25.30;6.07;;;15.80;99.90;;;;;;5114613;28;20171;-74
2022/10/02 00:12:53;;;;;;;24.27;5.17;;;15.90;99.90;;;;;;5114582;28;20159;-73
2022/10/02 00:15:27;;;;;;;28.40;5.90;;;15.80;99.90;;;;;;5114187;28;20175;-73
2022/10/02 00:17:56;;;;;;;28.17;5.30;;;15.80;99.90;;;;;;5114363;28;20254;-73
2022/10/02 00:20:31;;;;;;;27.10;5.80;;;15.80;99.90;;;;;;5114347;28;20162;-73
2022/10/02 00:23:03;;;;;;;28.93;6.10;;;15.80;99.90;;;;;;5114389;28;20209;-73
2022/10/02 00:25:58;;;;;;;31.30;5.90;;;15.80;99.90;;;;;;5114245;28;20199;-73
2022/10/02 00:28:56;;;;;;;32.20;5.93;;;15.80;99.90;;;;;;5070975;28;20578;-73
2022/10/02 00:31:37;;;;;;;26.77;5.20;;;15.90;99.90;;;;;;5113985;28;20163;-73
2022/10/02 00:34:43;;;;;;;30.40;5.70;;;15.90;99.90;;;;;;5114073;28;20194;-73
2022/10/02 00:37:39;;;;;;;27.40;5.63;;;15.80;99.90;;;;;;5114252;28;20171;-74
2022/10/02 00:40:27;;;;;;;28.63;5.37;;;15.70;99.90;;;;;;5095631;28;20175;-73
2022/10/02 00:43:13;;;;;;;26.63;6.10;;;15.60;99.90;;;;;;5113932;28;20203;-73
2022/10/02 00:46:21;;;;;;;24.30;5.23;;;15.70;99.90;;;;;;5114067;28;20228;-73
2022/10/02 00:48:49;;;;;;;28.47;4.93;;;15.80;99.90;;;;;;5114021;28;20183;-73
2022/10/02 00:51:34;;;;;;;22.50;5.23;;;15.80;99.90;;;;;;5113778;28;20642;-73
2022/10/02 00:54:14;;;;;;;27.40;6.07;;;15.90;99.90;;;;;;5113950;28;20179;-73
2022/10/02 00:56:43;;;;;;;21.10;4.77;;;15.80;99.90;;;;;;5114008;28;20634;-73
2022/10/02 00:59:29;;;;;;;31.70;5.90;;;15.80;99.90;;;;;;5113443;28;20246;-74
2022/10/02 01:02:12;;;;;;;30.43;5.37;;;15.80;99.90;;;;;;5113681;28;20283;-73
2022/10/02 01:04:39;;;;;;;21.03;5.27;;;15.80;99.90;;;;;;5095476;28;20167;-73
2022/10/02 01:07:09;;;;;;;26.87;5.77;;;15.80;99.90;;;;;;5113662;28;20258;-74
2022/10/02 01:09:36;;;;;;;26.10;5.30;;;15.80;99.90;;;;;;5113622;28;20163;-75
2022/10/02 01:12:02;;;;;;;28.13;5.70;;;15.70;99.90;;;;;;5113581;28;20232;-75
2022/10/02 01:14:36;;;;;;;28.53;5.37;;;15.60;99.90;;;;;;5113310;28;20171;-76
2022/10/02 01:17:04;;;;;;;24.80;5.37;;;15.50;99.90;;;;;;5113892;28;20251;-76
2022/10/02 01:19:38;;;;;;;28.63;5.87;;;15.50;99.90;;;;;;5113664;28;20187;-76
2022/10/02 01:22:16;;;;;;;23.37;5.37;;;15.60;99.90;;;;;;5113667;28;20651;-75
2022/10/02 01:24:49;;;;;;;28.37;6.10;;;15.50;99.90;;;;;;5113554;28;20569;-76
2022/10/02 01:27:15;;;;;;;24.90;5.43;;;15.40;99.90;;;;;;5113158;28;20222;-77
2022/10/02 01:29:43;;;;;;;25.60;4.70;;;15.30;99.90;;;;;;5113124;28;20621;-77
2022/10/02 01:32:09;;;;;;;23.43;4.70;;;15.30;99.90;;;;;;5112311;28;20266;-77
2022/10/02 01:34:35;;;;;;;24.77;5.43;;;15.20;99.90;;;;;;5113670;28;20263;-76
2022/10/02 01:37:01;;;;;;;30.73;5.00;;;15.10;99.90;;;;;;5113255;28;20675;-75
2022/10/02 01:39:28;;;;;;;26.27;5.43;;;15.20;99.90;;;;;;5113425;28;20182;-76
2022/10/02 01:41:54;;;;;;;25.67;5.07;;;15.20;99.90;;;;;;5113125;28;20215;-75
2022/10/02 01:44:20;;;;;;;23.23;5.20;;;15.20;99.90;;;;;;5113448;28;20175;-76
2022/10/02 01:46:56;;;;;;;19.80;4.43;;;15.30;99.90;;;;;;5113707;28;20212;-76
2022/10/02 01:49:46;;;;;;;23.97;4.83;;;15.30;99.90;;;;;;5113509;28;20166;-76
2022/10/02 01:52:23;;;;;;;25.30;5.20;;;15.20;99.90;;;;;;5113426;28;20246;-75
2022/10/02 01:55:12;;;;;;;24.83;5.03;;;15.10;99.90;;;;;;5113429;28;20163;-75
2022/10/02 01:58:07;;;;;;;23.60;4.63;;;15.20;99.90;;;;;;5094914;28;20631;-76
2022/10/02 02:00:51;;;;;;;23.70;4.60;;;15.20;99.90;;;;;;5095098;28;20203;-77
2022/10/02 02:03:50;;;;;;;17.57;4.60;;;15.20;99.90;;;;;;5113324;28;20615;-77
2022/10/02 02:06:45;;;;;;;19.17;4.47;;;15.20;99.90;;;;;;5113329;28;20623;-77
2022/10/02 02:09:19;;;;;;;23.90;4.80;;;15.20;99.90;;;;;;5113435;28;20160;-77
2022/10/02 02:11:55;;;;;;;17.33;4.17;;;15.10;99.90;;;;;;5112843;28;20217;-77
2022/10/02 02:14:31;;;;;;;20.93;4.50;;;15.10;99.90;;;;;;5113064;28;20159;-77
2022/10/02 02:17:25;;;;;;;21.63;4.80;;;15.10;99.90;;;;;;5113130;28;20686;-77
2022/10/02 02:20:16;;;;;;;18.63;4.33;;;15.10;99.90;;;;;;5105595;28;20232;-77
2022/10/02 02:22:48;;;;;;;24.53;4.80;;;15.10;99.90;;;;;;5116720;28;20259;-76
2022/10/02 02:25:21;;;;;;;17.80;4.60;;;15.10;99.90;;;;;;5116624;28;20170;-76
2022/10/02 02:27:51;;;;;;;18.47;4.10;;;15.10;99.90;;;;;;5116211;28;20214;-75
2022/10/02 02:30:19;;;;;;;19.33;4.27;;;15.10;99.90;;;;;;5116600;28;20160;-76
2022/10/02 02:32:49;;;;;;;29.27;5.10;;;15.10;99.90;;;;;;5116743;28;20191;-76
2022/10/02 02:35:30;;;;;;;19.50;4.57;;;15.10;99.90;;;;;;5116608;28;20171;-76
2022/10/02 02:38:03;;;;;;;22.03;4.00;;;15.10;99.90;;;;;;5116619;28;20171;-77
2022/10/02 02:40:31;;;;;;;17.93;4.43;;;15.10;99.90;;;;;;5115894;28;20259;-77
2022/10/02 02:43:01;;;;;;;18.87;4.30;;;15.10;99.90;;;;;;5116189;28;20223;-78
2022/10/02 02:45:34;;;;;;;16.83;4.00;;;15.10;99.90;;;;;;5116524;28;20244;-76
2022/10/02 02:48:07;;;;;;;18.80;4.53;;;15.10;99.90;;;;;;5116265;28;20167;-78
2022/10/02 02:50:45;;;;;;;18.10;4.20;;;15.10;99.90;;;;;;5116246;28;20186;-78
2022/10/02 02:53:18;;;;;;;18.60;4.37;;;15.00;99.90;;;;;;5116297;28;20159;-77
2022/10/02 02:55:56;;;;;;;22.90;5.40;;;15.00;99.90;;;;;;5116040;28;20210;-77
2022/10/02 02:58:47;;;;;;;21.93;5.37;;;14.90;99.90;;;;;;5116081;28;20615;-77
2022/10/02 03:01:12;;;;;;;17.60;3.97;;;15.00;99.90;;;;;;5115863;28;20667;-77
2022/10/02 03:03:38;;;;;;;16.77;4.40;;;15.00;99.90;;;;;;5115863;28;20171;-77
2022/10/02 03:06:30;;;;;;;17.37;5.13;;;15.00;99.90;;;;;;5115954;28;20171;-77
2022/10/02 03:08:56;;;;;;;20.33;5.33;;;15.00;99.90;;;;;;5115608;28;20163;-76
2022/10/02 03:11:33;;;;;;;18.77;5.40;;;14.90;99.90;;;;;;5115660;28;20325;-76
2022/10/02 03:14:35;;;;;;;21.07;5.33;;;14.90;99.90;;;;;;5115794;28;20653;-76
2022/10/02 03:17:33;;;;;;;14.77;4.93;;;14.90;99.90;;;;;;5115586;28;20167;-77
2022/10/02 03:20:02;;;;;;;15.30;4.60;;;14.90;99.90;;;;;;5115514;28;20163;-76
2022/10/02 03:22:59;;;;;;;15.67;4.63;;;15.00;99.90;;;;;;5114044;28;20291;-76
2022/10/02 03:25:50;;;;;;;12.33;3.73;;;15.10;99.90;;;;;;5115573;28;20198;-76
2022/10/02 03:28:21;;;;;;;13.70;4.10;;;14.90;99.90;;;;;;5115153;28;20313;-77
2022/10/02 03:30:49;;;;;;;12.20;3.57;;;15.00;99.90;;;;;;5096035;28;20258;-77
2022/10/02 03:33:16;;;;;;;10.57;3.50;;;14.90;99.90;;;;;;5115321;28;20178;-77
2022/10/02 03:35:43;;;;;;;11.50;3.23;;;14.90;99.90;;;;;;5115265;28;20174;-77
2022/10/02 03:38:12;;;;;;;12.23;3.67;;;14.90;99.90;;;;;;5114884;28;20172;-77
2022/10/02 03:40:38;;;;;;;9.93;3.00;;;14.90;99.90;;;;;;5114925;28;20246;-75
2022/10/02 03:43:03;;;;;;;9.37;3.00;;;14.90;99.90;;;;;;5115205;28;20285;-76
2022/10/02 03:45:30;;;;;;;12.00;3.10;;;14.90;99.90;;;;;;5096384;28;20167;-75
2022/10/02 03:47:55;;;;;;;10.00;2.80;;;14.90;99.90;;;;;;5115300;28;20178;-75
2022/10/02 03:50:21;;;;;;;8.30;2.93;;;14.90;99.90;;;;;;5114791;28;20177;-74
2022/10/02 03:52:51;;;;;;;8.40;2.30;;;15.00;99.90;;;;;;5113218;28;20223;-74
2022/10/02 03:55:32;;;;;;;8.23;2.70;;;15.00;99.90;;;;;;5114683;28;20173;-74
2022/10/02 03:58:01;;;;;;;9.33;2.67;;;14.90;99.90;;;;;;5114652;28;20175;-74
2022/10/02 04:00:40;;;;;;;9.80;2.47;;;14.90;99.90;;;;;;5114773;28;20736;-74
2022/10/02 04:03:18;;;;;;;10.43;3.10;;;14.80;99.90;;;;;;5114470;28;20193;-74
2022/10/02 04:05:49;;;;;;;7.13;2.33;;;14.90;99.90;;;;;;5096296;28;20179;-74
2022/10/02 04:08:24;;;;;;;9.63;2.93;;;14.80;99.90;;;;;;5114058;28;20210;-74
2022/10/02 04:11:15;;;;;;;7.97;2.63;;;14.80;99.90;;;;;;5114429;28;20801;-74
2022/10/02 04:13:48;;;;;;;7.70;2.80;;;14.80;99.90;;;;;;5114416;28;20163;-74
2022/10/02 04:16:47;;;;;;;12.93;3.63;;;14.90;99.90;;;;;;5114360;28;20164;-73
2022/10/02 04:19:15;;;;;;;10.03;3.03;;;14.90;99.90;;;;;;5113705;28;20670;-73
2022/10/02 04:21:56;;;;;;;17.77;4.40;;;14.90;99.90;;;;;;5113929;28;20210;-74
2022/10/02 04:24:44;;;;;;;15.23;3.40;;;15.00;99.90;;;;;;5114369;28;20171;-75
2022/10/02 04:27:21;;;;;;;10.97;3.27;;;14.90;99.90;;;;;;5114077;28;20163;-75
2022/10/02 04:30:16;;;;;;;15.00;3.60;;;14.90;99.90;;;;;;5113766;28;20224;-75
2022/10/02 04:32:42;;;;;;;13.67;4.00;;;14.90;99.90;;;;;;5091992;28;20183;-75
2022/10/02 04:35:43;;;;;;;14.90;4.27;;;14.90;99.90;;;;;;5114139;28;20167;-75
2022/10/02 04:38:39;;;;;;;12.70;3.73;;;14.90;99.90;;;;;;4995215;28;20178;-75
2022/10/02 04:41:27;;;;;;;16.00;3.87;;;14.80;99.90;;;;;;5011441;28;20297;-74
2022/10/02 04:43:59;;;;;;;14.10;3.53;;;14.80;99.90;;;;;;4994967;28;20190;-74
2022/10/02 04:46:48;;;;;;;13.43;3.57;;;14.80;99.90;;;;;;5011632;28;20273;-74
2022/10/02 04:49:28;;;;;;;16.60;3.50;;;14.70;99.90;;;;;;5011213;28;20646;-75
2022/10/02 04:52:12;;;;;;;12.67;3.80;;;14.60;99.90;;;;;;5011312;28;20189;-75
2022/10/02 04:55:02;;;;;;;12.40;3.17;;;14.70;99.90;;;;;;5011428;28;20306;-76
2022/10/02 04:57:53;;;;;;;15.23;3.87;;;14.70;99.90;;;;;;5011627;28;20166;-76
2022/10/02 05:00:21;;;;;;;21.73;4.23;;;14.70;99.90;;;;;;5011385;28;20178;-76
2022/10/02 05:03:15;;;;;;;11.40;3.63;;;14.70;99.90;;;;;;5011430;28;20214;-77
2022/10/02 05:06:17;;;;;;;8.80;2.80;;;14.70;99.90;;;;;;5011229;28;20174;-76
2022/10/02 05:08:46;;;;;;;14.37;3.77;;;14.70;99.90;;;;;;5011570;28;20281;-77
2022/10/02 05:11:29;;;;;;;9.17;3.07;;;14.60;99.90;;;;;;4994719;28;20633;-77
2022/10/02 05:14:21;;;;;;;13.87;2.87;;;14.70;99.90;;;;;;5040169;28;20183;-77
2022/10/02 05:16:59;;;;;;;13.37;3.10;;;14.70;99.90;;;;;;5113732;28;20174;-76
2022/10/02 05:19:48;;;;;;;14.33;3.80;;;14.60;99.90;;;;;;5113340;28;20171;-76
2022/10/02 05:22:44;;;;;;;16.13;3.13;;;14.60;99.90;;;;;;5074764;28;20215;-76
2022/10/02 05:25:32;;;;;;;16.60;4.17;;;14.60;99.90;;;;;;5113526;28;20167;-77
2022/10/02 05:28:01;;;;;;;17.23;3.37;;;14.60;99.90;;;;;;5091584;28;20223;-76
2022/10/02 05:30:47;;;;;;;13.63;3.00;;;14.60;99.90;;;;;;5093020;28;20565;-77
2022/10/02 05:33:34;;;;;;;13.20;3.73;;;14.60;99.90;;;;;;5092899;28;20269;-76
2022/10/02 05:36:08;;;;;;;12.40;3.70;;;14.60;99.90;;;;;;5093010;28;20557;-75
2022/10/02 05:38:53;;;;;;;17.53;3.63;;;14.60;99.90;;;;;;5092912;28;20174;-75
2022/10/02 05:41:44;;;;;;;12.90;3.30;;;14.70;99.90;;;;;;5092937;28;20203;-75
2022/10/02 05:44:28;;;;;;;16.33;3.80;;;14.60;99.90;;;;;;5092598;28;20281;-75
2022/10/02 05:47:10;;;;;;;13.37;3.90;;;14.70;99.90;;;;;;5091539;28;20237;-77
2022/10/02 05:49:43;;;;;;;14.50;3.80;;;14.80;99.90;;;;;;5092382;28;20168;-77
2022/10/02 05:52:17;;;;;;;11.50;3.67;;;14.80;99.90;;;;;;5092584;28;20163;-77
2022/10/02 05:54:59;;;;;;;15.77;3.77;;;14.80;99.90;;;;;;5094978;28;20180;-77
2022/10/02 05:57:33;;;;;;;13.03;3.17;;;14.90;99.90;;;;;;5096501;28;20176;-77
2022/10/02 06:00:02;;;;;;;10.63;3.77;;;14.90;99.90;;;;;;5095293;28;20175;-78
2022/10/02 06:02:56;;;;;;;12.13;4.00;;;14.90;99.90;;;;;;5096259;28;20238;-76
2022/10/02 06:05:44;;;;;;;11.70;3.60;;;14.90;99.90;;;;;;5096643;28;20191;-76
2022/10/02 06:08:14;;;;;;;11.10;3.50;;;14.80;99.90;;;;;;5094973;28;20217;-75
2022/10/02 06:10:45;;;;;;;9.90;2.80;;;14.80;99.90;;;;;;5096174;28;20168;-75
2022/10/02 06:13:34;;;;;;;17.83;3.17;;;14.80;99.90;;;;;;5096517;28;20164;-76
2022/10/02 06:16:25;;;;;;;9.50;3.47;;;14.90;99.90;;;;;;5094931;28;20195;-75
2022/10/02 06:19:23;;;;;;;11.23;3.47;;;14.80;99.90;;;;;;5095097;28;20160;-75
2022/10/02 06:21:53;;;;;;;14.60;3.30;;;14.70;99.90;;;;;;5095291;28;20227;-77
2022/10/02 06:24:29;;;;;;;7.73;2.97;;;14.70;99.90;;;;;;5096143;28;20164;-77
2022/10/02 06:27:02;;;;;;;12.20;3.00;;;14.60;99.90;;;;;;5096155;28;20653;-77
2022/10/02 06:29:35;;;;;;;8.07;3.17;;;14.60;99.90;;;;;;5113126;28;20622;-77
2022/10/02 06:32:08;;;;;;;12.17;2.93;;;14.60;99.90;;;;;;5115969;28;20174;-77
2022/10/02 06:34:33;;;;;;;8.50;2.80;;;14.60;99.90;;;;;;5098186;28;20199;-75
2022/10/02 06:37:21;;;;;;;9.23;2.77;;;14.60;99.90;;;;;;5116290;28;20199;-76
2022/10/02 06:39:59;;;;;;;7.33;2.77;;;14.70;99.90;;;;;;5116020;28;20163;-76
2022/10/02 06:42:34;;;;;;;9.47;3.40;;;14.60;99.90;;;;;;5115974;28;20203;-76
2022/10/02 06:45:22;;;;;;;8.73;2.87;;;14.60;99.90;;;;;;5116214;28;20174;-77
2022/10/02 06:48:45;;;;;;;9.40;3.40;;;14.60;99.90;;;;;;5115567;28;20171;-76
2022/10/02 06:51:23;;;;;;;11.00;3.10;;;14.70;99.90;;;;;;5013015;28;20202;-75
2022/10/02 06:54:17;;;;;;;8.23;2.70;;;14.70;99.90;;;;;;5013625;28;20205;-75
2022/10/02 06:57:06;;;;;;;9.07;3.20;;;14.60;99.90;;;;;;5013472;28;20232;-76
2022/10/02 06:59:50;;;;;;;12.97;3.37;;;14.60;99.90;;;;;;5013278;28;20170;-77
2022/10/02 07:02:23;;;;;;;10.03;3.07;;;14.60;99.90;;;;;;4996664;28;20674;-77
2022/10/02 07:04:54;;;;;;;11.30;3.33;;;14.60;99.90;;;;;;5013110;28;20199;-76
2022/10/02 07:07:28;;;;;;;9.17;2.93;;;14.60;99.90;;;;;;4996716;28;20170;-76
2022/10/02 07:10:13;;;;;;;10.90;3.10;;;14.70;99.90;;;;;;5012578;28;20273;-75
2022/10/02 07:13:08;;;;;;;10.57;3.67;;;14.60;99.90;;;;;;4996947;28;20636;-76
2022/10/02 07:16:05;;;;;;;10.17;3.53;;;14.60;99.90;;;;;;5012413;28;20667;-76
2022/10/02 07:18:36;;;;;;;10.60;3.47;;;14.70;99.90;;;;;;5013060;28;20697;-74
2022/10/02 07:21:38;;;;;;;14.97;4.10;;;14.80;99.90;;;;;;5025887;28;20260;-74
2022/10/02 07:24:41;;;;;;;9.63;3.70;;;14.80;99.90;;;;;;5115383;28;20170;-76
2022/10/02 07:28:09;;;;;;;10.77;4.47;;;14.80;99.90;;;;;;5115310;28;20199;-76
2022/10/02 07:30:50;;;;;;;6.57;3.50;;;14.90;99.90;;;;;;5031789;28;20672;-76
2022/10/02 07:33:46;;;;;;;8.70;3.77;;;14.80;99.90;;;;;;5048516;28;20189;-74
2022/10/02 07:36:42;;;;;;;10.87;4.40;;;14.80;99.90;;;;;;5096368;28;20631;-75
2022/10/02 07:39:34;;;;;;;12.33;4.63;;;14.90;99.90;;;;;;5114695;28;20611;-76
2022/10/02 07:42:19;;;;;;;10.80;3.87;;;14.90;99.90;;;;;;5096344;28;20238;-76
2022/10/02 07:45:11;;;;;;;9.80;3.90;;;15.00;99.90;;;;;;5114513;28;20171;-76
2022/10/02 07:48:06;;;;;;;8.43;3.83;;;15.00;99.90;;;;;;5114723;28;20191;-75
2022/10/02 07:51:00;;;;;;;10.23;4.17;;;15.00;99.90;;;;;;5114458;28;20160;-78
2022/10/02 07:53:38;;;;;;;10.07;3.90;;;14.90;99.90;;;;;;5114747;28;20178;-76
2022/10/02 07:56:10;;;;;;;8.40;3.73;;;14.90;99.90;;;;;;5114698;28;20171;-77
2022/10/02 07:58:50;;;;;;;6.63;4.00;;;15.00;99.90;;;;;;5113942;28;20253;-76
2022/10/02 08:01:22;;;;;;;9.33;3.77;;;15.20;99.90;;;;;;5114505;28;20206;-76
2022/10/02 08:03:54;;;;;;;7.57;3.33;;;15.20;99.90;;;;;;5113747;28;20623;-77
2022/10/02 08:06:19;;;;;;;7.80;3.33;;;15.20;99.90;;;;;;5114111;28;20216;-76
2022/10/02 08:08:54;;;;;;;8.73;3.87;;;15.20;99.90;;;;;;5095676;28;20175;-76
2022/10/02 08:11:44;;;;;;;7.40;2.93;;;15.30;99.90;;;;;;5114086;28;20186;-75
2022/10/02 08:14:25;;;;;;;4.33;2.70;;;15.40;99.90;;;;;;5072240;28;20263;-77
2022/10/02 08:16:53;;;;;;;5.27;2.70;;;15.20;99.90;;;;;;5113374;28;20175;-76
2022/10/02 08:19:34;;;;;;;7.63;2.67;;;15.30;99.90;;;;;;5114111;28;20182;-76
2022/10/02 08:22:08;;;;;;;5.67;2.53;;;15.40;99.90;;;;;;5113774;28;20198;-76
2022/10/02 08:24:46;;;;;;;5.77;2.67;;;15.50;99.90;;;;;;5114239;28;20194;-76
2022/10/02 08:27:19;;;;;;;7.07;2.70;;;15.60;99.90;;;;;;5113379;28;20179;-76
2022/10/02 08:30:02;;;;;;;4.33;1.90;;;15.70;99.90;;;;;;5113173;28;20223;-76
2022/10/02 08:32:30;;;;;;;6.03;2.33;;;15.70;99.90;;;;;;5113989;28;20167;-74
2022/10/02 08:34:56;;;;;;;6.63;2.57;;;15.80;99.90;;;;;;5113917;28;20178;-76
2022/10/02 08:37:34;;;;;;;6.50;2.40;;;15.80;99.90;;;;;;5114149;28;20171;-76
2022/10/02 08:40:27;;;;;;;6.30;2.30;;;15.80;99.90;;;;;;5113217;28;20163;-76
2022/10/02 08:43:21;;;;;;;6.30;2.20;;;15.90;99.90;;;;;;5095181;28;20363;-76
2022/10/02 08:46:05;;;;;;;5.57;2.43;;;16.10;99.90;;;;;;5113711;28;20163;-76
2022/10/02 08:48:48;;;;;;;4.47;2.13;;;16.00;99.90;;;;;;5113602;28;20254;-76
2022/10/02 08:51:51;;;;;;;3.90;2.50;;;15.80;99.90;;;;;;5113541;28;20160;-76
2022/10/02 08:54:48;;;;;;;4.90;2.53;;;15.70;99.90;;;;;;5095508;28;20171;-76
2022/10/02 08:57:26;;;;;;;5.13;2.20;;;15.70;99.90;;;;;;5041557;28;20265;-76
2022/10/02 09:00:11;;;;;;;5.63;2.27;;;15.60;99.90;;;;;;5095494;28;20186;-76
2022/10/02 09:02:42;;;;;;;2.60;1.90;;;15.70;99.90;;;;;;5112907;28;20289;-76
2022/10/02 09:05:40;;;;;;;6.37;2.23;;;15.60;99.90;;;;;;5113154;28;20182;-76
2022/10/02 09:08:18;;;;;;;4.90;2.37;;;15.60;99.90;;;;;;5113318;28;20217;-75
2022/10/02 09:11:08;;;;;;;5.00;2.30;;;15.50;99.90;;;;;;5113178;28;20167;-75
2022/10/02 09:14:04;;;;;;;5.63;2.03;;;15.50;99.90;;;;;;5113187;28;20167;-74
2022/10/02 09:16:48;;;;;;;7.20;2.40;;;15.60;99.90;;;;;;5113218;28;20163;-76
2022/10/02 09:19:47;;;;;;;7.30;2.87;;;15.70;99.90;;;;;;5113028;28;20579;-76
2022/10/02 09:22:28;;;;;;;8.97;2.57;;;15.70;99.90;;;;;;5113380;28;20277;-76
2022/10/02 09:25:23;;;;;;;4.37;2.30;;;15.50;99.90;;;;;;5113294;28;20167;-75
2022/10/02 09:28:17;;;;;;;6.10;2.30;;;15.50;99.90;;;;;;5101767;28;20713;-76
2022/10/02 09:31:07;;;;;;;5.43;2.80;;;15.40;99.90;;;;;;5117464;28;20171;-77
2022/10/02 09:33:45;;;;;;;5.07;2.77;;;15.40;99.90;;;;;;5117620;28;20171;-77
2022/10/02 09:36:37;;;;;;;3.63;2.67;;;15.50;99.90;;;;;;5117088;28;20194;-76
2022/10/02 09:39:23;;;;;;;6.50;2.67;;;15.40;99.90;;;;;;5117260;28;20528;-76
2022/10/02 09:42:41;;;;;;;4.53;2.40;;;15.50;99.90;;;;;;5116908;28;20670;-76
2022/10/02 09:45:36;;;;;;;6.73;3.00;;;15.40;99.90;;;;;;5116764;28;20168;-75
2022/10/02 09:48:29;;;;;;;5.37;2.63;;;15.40;99.90;;;;;;5117215;28;20178;-75
2022/10/02 09:50:58;;;;;;;7.87;3.17;;;15.50;99.90;;;;;;5116831;28;20265;-76
2022/10/02 09:53:49;;;;;;;3.97;2.63;;;15.60;99.90;;;;;;5117418;28;20175;-76
2022/10/02 09:56:39;;;;;;;4.13;2.60;;;15.70;99.90;;;;;;5102410;28;20187;-75
2022/10/02 09:59:28;;;;;;;4.53;2.80;;;15.80;99.90;;;;;;5115727;28;20168;-75
2022/10/02 10:02:09;;;;;;;3.80;2.60;;;15.80;99.90;;;;;;5116703;28;20293;-75
2022/10/02 10:05:07;;;;;;;2.43;2.20;;;15.60;99.90;;;;;;5116629;28;20198;-75
2022/10/02 10:07:59;;;;;;;4.30;2.23;;;15.50;99.90;;;;;;5116340;28;20175;-75
2022/10/02 10:10:37;;;;;;;5.53;3.10;;;15.60;99.90;;;;;;5116159;28;20251;-75
2022/10/02 10:13:31;;;;;;;5.87;3.00;;;15.70;99.90;;;;;;5116681;28;20218;-75
2022/10/02 10:16:02;;;;;;;6.27;3.00;;;15.80;99.90;;;;;;5116069;28;20719;-74
2022/10/02 10:19:02;;;;;;;5.07;2.67;;;15.70;99.90;;;;;;5116139;28;20498;-75
2022/10/02 10:21:55;;;;;;;4.27;2.23;;;15.70;99.90;;;;;;5116427;28;20206;-75
2022/10/02 10:24:58;;;;;;;5.10;2.30;;;15.70;99.90;;;;;;5116026;28;20246;-75
2022/10/02 10:27:51;;;;;;;4.77;2.80;;;15.90;99.90;;;;;;5116254;28;20193;-74
2022/10/02 10:30:36;;;;;;;3.43;2.10;;;15.90;99.90;;;;;;5095226;28;20180;-75
2022/10/02 10:33:33;;;;;;;5.70;2.17;;;15.70;99.90;;;;;;5095658;28;20528;-76
2022/10/02 10:39:29;;;;;;;3.83;2.23;;;15.70;99.90;;;;;;5095133;28;20195;-76
2022/10/02 10:42:28;;;;;;;3.67;2.57;;;15.90;99.90;;;;;;5095380;28;20200;-75
2022/10/02 10:45:02;;;;;;;3.90;2.03;;;16.20;99.90;;;;;;5061221;28;20186;-74
2022/10/02 10:48:02;;;;;;;6.13;2.80;;;16.30;99.90;;;;;;5095678;28;20167;-74
2022/10/02 10:50:34;;;;;;;27.50;20.23;;;16.50;99.90;;;;;;5093256;28;20178;-74
2022/10/02 10:53:12;;;;;;;5.23;3.10;;;16.70;99.90;;;;;;5095076;28;20164;-75
2022/10/02 10:55:57;;;;;;;3.27;2.60;;;16.90;99.90;;;;;;5095530;28;20167;-76
2022/10/02 10:58:32;;;;;;;5.80;2.90;;;16.90;99.90;;;;;;5095114;28;20546;-76
2022/10/02 11:01:18;;;;;;;2.93;2.40;;;16.90;99.90;;;;;;5095353;28;20164;-76
2022/10/02 11:04:12;;;;;;;3.50;2.90;;;16.80;99.90;;;;;;5094694;28;20171;-75
2022/10/02 11:06:53;;;;;;;3.70;2.43;;;16.90;99.90;;;;;;5095199;28;20171;-75
2022/10/02 11:09:31;;;;;;;2.90;2.23;;;16.90;99.90;;;;;;5094695;28;20187;-76
2022/10/02 11:12:32;;;;;;;3.53;2.50;;;16.70;99.90;;;;;;5094563;28;20163;-75
2022/10/02 11:15:13;;;;;;;5.80;3.50;;;16.80;99.90;;;;;;5012738;28;20233;-75
2022/10/02 11:17:46;;;;;;;4.00;2.60;;;16.90;99.90;;;;;;5012796;28;20186;-75
2022/10/02 11:20:41;;;;;;;4.47;2.53;;;17.10;99.90;;;;;;5012543;28;20179;-75
2022/10/02 11:23:26;;;;;;;3.83;2.40;;;17.20;99.90;;;;;;5012252;28;20218;-75
2022/10/02 11:26:09;;;;;;;4.53;2.63;;;17.20;99.90;;;;;;5012934;28;20178;-75
2022/10/02 11:28:59;;;;;;;5.30;2.90;;;17.20;99.90;;;;;;5012303;28;20282;-75
2022/10/02 11:32:02;;;;;;;4.53;2.47;;;17.50;99.90;;;;;;5012167;28;20178;-74
2022/10/02 11:34:55;;;;;;;4.03;2.90;;;17.80;99.90;;;;;;4993140;28;20698;-76
2022/10/02 11:37:41;;;;;;;4.10;2.70;;;17.90;99.90;;;;;;4992502;28;20198;-76
2022/10/02 11:40:43;;;;;;;4.78;3.03;;;17.60;99.90;;;;;;4992785;28;20230;-75
2022/10/02 11:43:21;;;;;;;4.57;2.47;;;17.70;99.90;;;;;;4972956;28;20223;-74
2022/10/02 11:46:07;;;;;;;5.25;2.42;;;17.70;99.90;;;;;;4973027;28;20343;-75
2022/10/02 11:49:00;;;;;;;4.73;2.50;;;17.60;99.90;;;;;;5006004;28;20188;-75
2022/10/02 11:51:38;;;;;;;3.30;2.60;;;17.30;99.90;;;;;;5069963;28;20192;-76
2022/10/02 11:54:26;;;;;;;3.53;2.73;;;17.20;99.90;;;;;;5071708;28;20183;-75
2022/10/02 11:57:20;;;;;;;4.40;2.83;;;17.30;99.90;;;;;;5071624;28;20259;-75
2022/10/02 12:00:14;;;;;;;4.03;2.90;;;17.10;99.90;;;;;;5044243;28;20188;-75
2022/10/02 12:02:55;;;;;;;5.77;3.00;;;17.10;99.90;;;;;;5071640;28;20204;-75
2022/10/02 12:05:29;;;;;;;3.67;3.00;;;17.10;99.90;;;;;;5071727;28;20215;-74
2022/10/02 12:08:23;;;;;;;3.43;3.03;;;17.10;99.90;;;;;;5071067;28;20279;-74
2022/10/02 12:11:13;;;;;;;4.00;3.57;;;17.20;99.90;;;;;;5069738;28;20176;-74
2022/10/02 12:14:12;;;;;;;3.10;2.63;;;17.10;99.90;;;;;;5094141;28;20628;-75
2022/10/02 12:16:44;;;;;;;3.57;3.03;;;17.30;99.90;;;;;;5093169;28;20274;-75
2022/10/02 12:19:37;;;;;;;6.27;3.40;;;17.10;99.90;;;;;;5094543;28;20173;-76
2022/10/02 12:28:13;;;;;;;4.73;3.77;;;17.00;99.90;;;;;;5097039;28;20222;-74
2022/10/02 12:30:50;;;;;;;4.73;3.03;;;17.20;99.90;;;;;;5113407;28;20212;-75
2022/10/02 12:33:40;;;;;;;6.50;3.00;;;17.40;99.90;;;;;;5113759;28;20171;-75
2022/10/02 12:36:33;;;;;;;6.50;3.20;;;17.30;99.90;;;;;;5113598;28;20171;-75
2022/10/02 12:39:36;;;;;;;3.83;3.30;;;16.90;99.90;;;;;;5113511;28;20638;-74
2022/10/02 12:42:13;;;;;;;5.83;3.60;;;16.80;99.90;;;;;;5113292;28;20278;-74
2022/10/02 12:44:58;;;;;;;6.40;4.03;;;16.80;99.90;;;;;;5113432;28;20162;-76
2022/10/02 12:47:47;;;;;;;4.47;3.73;;;17.10;99.90;;;;;;5112945;28;20174;-75
2022/10/02 12:50:51;;;;;;;9.37;3.73;;;17.30;99.90;;;;;;5113557;28;20163;-73
2022/10/02 12:53:43;;;;;;;6.77;4.13;;;17.40;99.90;;;;;;5091760;28;20244;-76
2022/10/02 12:56:32;;;;;;;5.53;4.40;;;17.60;99.90;;;;;;5113565;28;20168;-75
2022/10/02 12:59:23;;;;;;;6.10;4.43;;;17.30;99.90;;;;;;5112930;28;20171;-75
2022/10/02 13:02:09;;;;;;;8.93;4.70;;;17.20;99.90;;;;;;5056449;28;20236;-75
2022/10/02 13:04:56;;;;;;;5.77;4.53;;;17.10;99.90;;;;;;5112704;28;20669;-75
2022/10/02 13:07:37;;;;;;;8.53;5.03;;;17.00;99.90;;;;;;5113601;28;20178;-74
2022/10/02 13:10:22;;;;;;;6.87;5.13;;;17.00;99.90;;;;;;5112602;28;20216;-75
2022/10/02 13:12:51;;;;;;;7.87;5.10;;;17.00;99.90;;;;;;5112958;28;20677;-76
2022/10/02 13:15:45;;;;;;;9.00;5.43;;;17.00;99.90;;;;;;5095110;28;20208;-74
2022/10/02 13:18:42;;;;;;;8.33;5.53;;;16.80;99.90;;;;;;5111912;28;20170;-75
2022/10/02 13:21:34;;;;;;;7.90;6.10;;;17.00;99.90;;;;;;5069122;28;20189;-75
2022/10/02 13:24:21;;;;;;;11.77;6.00;;;17.40;99.90;;;;;;5113188;28;20267;-75
2022/10/02 13:27:02;;;;;;;6.00;5.40;;;17.60;99.90;;;;;;5113257;28;20174;-75
2022/10/02 13:29:33;;;;;;;9.17;5.80;;;17.70;99.90;;;;;;5112866;28;20218;-76
2022/10/02 13:32:25;;;;;;;8.53;5.13;;;17.60;99.90;;;;;;5112527;28;20200;-75
2022/10/02 13:35:24;;;;;;;11.80;6.00;;;17.40;99.90;;;;;;5112680;28;20198;-75
2022/10/02 13:38:16;;;;;;;9.27;5.30;;;17.50;99.90;;;;;;5113150;28;20239;-75
2022/10/02 13:41:08;;;;;;;8.13;5.13;;;17.40;99.90;;;;;;5112116;28;20182;-75
2022/10/02 13:44:02;;;;;;;8.13;5.60;;;17.40;99.90;;;;;;5094818;28;20207;-75
2022/10/02 13:47:01;;;;;;;6.07;5.23;;;17.60;99.90;;;;;;5112473;28;20206;-75
2022/10/02 13:49:42;;;;;;;9.80;5.43;;;17.80;99.90;;;;;;5112903;28;20163;-75
2022/10/02 13:52:32;;;;;;;9.90;6.30;;;18.00;99.90;;;;;;5112394;28;20647;-75
2022/10/02 13:55:21;;;;;;;7.82;5.18;;;18.10;99.90;;;;;;5094041;28;20175;-75
2022/10/02 13:58:11;;;;;;;12.48;5.72;;;18.20;99.90;;;;;;5112418;28;20645;-74
2022/10/02 14:00:37;;;;;;;17.27;10.57;;;18.10;99.90;;;;;;5112567;28;20174;-74
2022/10/02 14:03:35;;;;;;;8.13;6.55;;;18.10;99.90;;;;;;5093968;28;20207;-74
2022/10/02 14:06:15;;;;;;;9.52;6.57;;;18.30;99.90;;;;;;5112371;28;20163;-74
2022/10/02 14:09:03;;;;;;;9.75;6.43;;;18.40;99.90;;;;;;5112407;28;20163;-73